createdAt,value
2022-07-29T00:00:11.872Z,100794.23
2022-07-29T00:03:36.289Z,100791.52
2022-07-29T00:06:57.222Z,100792.14
2022-07-29T00:10:33.995Z,100787.67
2022-07-29T00:14:07.078Z,100786.41
2022-07-29T00:21:00.825Z,100783.80
2022-07-29T00:24:35.070Z,100788.33
2022-07-29T00:27:44.194Z,100788.52
2022-07-29T00:30:51.108Z,100786.15
2022-07-29T00:38:09.495Z,100789.81
2022-07-29T00:41:40.260Z,100788.04
2022-07-29T01:18:48.019Z,100801.52
2022-07-29T01:22:14.662Z,100801.69
2022-07-29T01:25:21.453Z,100801.08
2022-07-29T01:28:31.690Z,100804.64
2022-07-29T01:31:32.209Z,100803.79
2022-07-29T01:35:08.750Z,100803.27
2022-07-29T01:42:31.028Z,100798.70
2022-07-29T01:45:22.972Z,100805.11
2022-07-29T01:48:51.068Z,100802.98
2022-07-29T01:51:40.649Z,100805.41
2022-07-29T01:54:28.309Z,100798.76
2022-07-29T01:57:15.447Z,100800.33
2022-07-29T02:00:33.615Z,100792.21
2022-07-29T02:03:34.155Z,100800.62
2022-07-29T02:07:02.580Z,100796.48
2022-07-29T02:09:50.935Z,100790.25
2022-07-29T02:12:37.295Z,100799.24
2022-07-29T02:15:45.024Z,100800.27
2022-07-29T02:18:47.042Z,100806.52
2022-07-29T02:25:58.310Z,100809.69
2022-07-29T02:29:30.685Z,100811.42
2022-07-29T02:33:06.092Z,100809.73
2022-07-29T02:36:30.110Z,100813.66
2022-07-29T02:43:59.309Z,100809.32
2022-07-29T02:47:59.690Z,100805.64
2022-07-29T02:51:55.101Z,100801.42
2022-07-29T02:55:59.179Z,100796.37
2022-07-29T03:14:11.703Z,100795.69
2022-07-29T03:17:31.288Z,100793.94
2022-07-29T03:31:53.841Z,100797.56
2022-07-29T03:42:43.168Z,100797.66
2022-07-29T03:45:47.119Z,100799.51
2022-07-29T03:48:26.851Z,100798.59
2022-07-29T03:50:55.067Z,100801.89
2022-07-29T03:53:36.147Z,100801.59
2022-07-29T03:56:18.080Z,100806.54
2022-07-29T03:58:57.564Z,100806.81
2022-07-29T04:01:29.919Z,100805.51
2022-07-29T04:04:21.665Z,100805.05
2022-07-29T04:06:59.716Z,100805.35
2022-07-29T04:10:03.455Z,100805.55
2022-07-29T04:13:10.914Z,100801.23
2022-07-29T04:15:41.995Z,100803.33
2022-07-29T04:18:19.747Z,100798.20
2022-07-29T04:21:01.596Z,100792.66
2022-07-29T04:23:53.332Z,100790.82
2022-07-29T04:26:42.639Z,100789.56
2022-07-29T04:29:20.919Z,100790.05
2022-07-29T04:31:53.189Z,100785.84
2022-07-29T04:34:29.837Z,100788.34
2022-07-29T04:37:27.509Z,100791.05
2022-07-29T04:40:29.030Z,100801.60
2022-07-29T04:43:16.490Z,100798.65
2022-07-29T04:46:35.540Z,100793.31
2022-07-29T04:49:10.191Z,100794.81
2022-07-29T04:51:43.989Z,100796.27
2022-07-29T04:54:14.587Z,100792.16
2022-07-29T04:56:47.099Z,100792.01
2022-07-29T04:59:17.036Z,100788.40
2022-07-29T05:01:50.632Z,100787.58
2022-07-29T05:04:22.389Z,100790.36
2022-07-29T05:07:02.493Z,100786.66
2022-07-29T05:09:31.145Z,100792.88
2022-07-29T05:11:59.285Z,100798.34
2022-07-29T05:14:27.757Z,100797.22
2022-07-29T05:16:57.783Z,100800.83
2022-07-29T05:19:26.280Z,100797.19
2022-07-29T05:21:55.270Z,100801.17
2022-07-29T05:24:22.880Z,100797.22
2022-07-29T05:26:50.830Z,100798.20
2022-07-29T05:29:43.242Z,100799.77
2022-07-29T05:32:07.764Z,100798.92
2022-07-29T05:34:37.005Z,100796.48
2022-07-29T05:37:18.481Z,100796.09
2022-07-29T05:39:50.708Z,100790.98
2022-07-29T05:42:25.966Z,100791.95
2022-07-29T05:44:55.542Z,100793.61
2022-07-29T05:47:25.438Z,100793.67
2022-07-29T05:49:54.797Z,100797.70
2022-07-29T05:52:23.341Z,100799.00
2022-07-29T05:54:52.891Z,100804.73
2022-07-29T05:57:23.740Z,100807.46
2022-07-29T05:59:53.137Z,100804.73
2022-07-29T06:02:21.700Z,100804.21
2022-07-29T06:04:51.783Z,100804.67
2022-07-29T06:07:21.588Z,100804.94
2022-07-29T06:09:49.832Z,100799.09
2022-07-29T06:12:19.977Z,100799.75
2022-07-29T06:14:54.108Z,100798.38
2022-07-29T06:17:22.946Z,100798.16
2022-07-29T06:19:52.281Z,100796.37
2022-07-29T06:22:21.623Z,100794.80
2022-07-29T06:24:53.044Z,100799.88
2022-07-29T06:27:24.141Z,100797.38
2022-07-29T06:29:53.213Z,100797.63
2022-07-29T06:32:22.813Z,100800.46
2022-07-29T06:35:11.857Z,100801.67
2022-07-29T06:37:44.454Z,100798.09
2022-07-29T06:40:33.211Z,100798.84
2022-07-29T06:43:02.813Z,100803.15
2022-07-29T06:45:30.978Z,100805.30
2022-07-29T06:47:59.700Z,100804.92
2022-07-29T06:50:29.870Z,100805.00
2022-07-29T06:52:59.406Z,100801.41
2022-07-29T06:55:27.394Z,100801.88
2022-07-29T06:57:56.581Z,100800.80
2022-07-29T07:00:24.478Z,100805.51
2022-07-29T07:02:56.121Z,100801.23
2022-07-29T07:05:26.021Z,100805.20
2022-07-29T07:07:57.551Z,100801.69
2022-07-29T07:10:28.784Z,100805.46
2022-07-29T07:12:58.172Z,100798.36
2022-07-29T07:15:39.310Z,100794.02
2022-07-29T07:18:08.867Z,100790.91
2022-07-29T07:20:38.228Z,100788.56
2022-07-29T07:23:07.278Z,100790.55
2022-07-29T07:25:35.767Z,100793.83
2022-07-29T07:28:04.980Z,100785.81
2022-07-29T07:30:33.855Z,100791.10
2022-07-29T07:33:01.977Z,100791.73
2022-07-29T07:35:30.036Z,100785.35
2022-07-29T07:38:00.667Z,100786.59
2022-07-29T07:40:30.149Z,100782.79
2022-07-29T07:42:58.721Z,100782.85
2022-07-29T07:45:29.928Z,100779.90
2022-07-29T07:47:59.569Z,100779.27
2022-07-29T07:50:29.840Z,100779.31
2022-07-29T07:52:58.532Z,100778.84
2022-07-29T07:55:28.639Z,100781.67
2022-07-29T07:57:59.442Z,100783.38
2022-07-29T08:00:29.131Z,100774.11
2022-07-29T08:02:57.909Z,100783.40
2022-07-29T08:05:26.519Z,100782.40
2022-07-29T08:07:59.888Z,100787.82
2022-07-29T08:10:47.989Z,100794.44
2022-07-29T08:13:38.089Z,100793.73
2022-07-29T08:16:23.106Z,100796.95
2022-07-29T08:18:51.108Z,100788.20
2022-07-29T08:21:22.361Z,100791.49
2022-07-29T08:24:40.654Z,100786.46
2022-07-29T08:28:13.047Z,100784.43
2022-07-29T08:34:31.999Z,100789.10
2022-07-29T08:37:04.006Z,100783.16
2022-07-29T08:39:39.758Z,100777.94
2022-07-29T08:42:11.895Z,100773.61
2022-07-29T08:44:40.751Z,100770.83
2022-07-29T08:47:10.573Z,100770.56
2022-07-29T08:49:40.828Z,100777.65
2022-07-29T08:52:12.661Z,100769.23
2022-07-29T08:54:44.383Z,100769.40
2022-07-29T08:57:19.251Z,100769.09
2022-07-29T08:59:51.307Z,100767.50
2022-07-29T09:02:27.559Z,100768.98
2022-07-29T09:09:15.804Z,100764.86
2022-07-29T09:21:35.293Z,100777.59
2022-07-29T09:24:58.770Z,100774.94
2022-07-29T09:28:27.770Z,100771.70
2022-07-29T09:31:36.755Z,100773.08
2022-07-29T09:34:15.741Z,100765.35
2022-07-29T09:36:56.352Z,100764.33
2022-07-29T09:39:38.813Z,100770.42
2022-07-29T09:42:12.432Z,100765.38
2022-07-29T09:45:13.971Z,100762.90
2022-07-29T09:48:08.211Z,100763.79
2022-07-29T09:50:53.334Z,100761.96
2022-07-29T09:53:39.771Z,100761.77
2022-07-29T09:56:19.890Z,100762.58
2022-07-29T09:59:09.832Z,100762.20
2022-07-29T10:01:45.870Z,100755.59
2022-07-29T10:04:20.599Z,100753.59
2022-07-29T10:07:09.973Z,100753.60
2022-07-29T10:09:55.660Z,100744.08
2022-07-29T10:12:26.275Z,100742.76
2022-07-29T10:15:03.396Z,100736.19
2022-07-29T10:17:37.037Z,100733.10
2022-07-29T10:20:40.044Z,100731.64
2022-07-29T10:23:14.207Z,100724.41
2022-07-29T10:25:46.567Z,100723.05
2022-07-29T10:28:36.076Z,100720.30
2022-07-29T10:31:09.693Z,100722.77
2022-07-29T10:34:24.301Z,100720.29
2022-07-29T10:37:37.778Z,100720.55
2022-07-29T10:41:00.156Z,100718.30
2022-07-29T10:43:42.546Z,100709.29
2022-07-29T10:46:18.151Z,100713.94
2022-07-29T10:49:30.313Z,100707.80
2022-07-29T10:57:25.771Z,100716.58
2022-07-29T11:00:48.047Z,100708.42
2022-07-29T11:04:05.643Z,100708.58
2022-07-29T11:07:05.426Z,100710.33
2022-07-29T11:10:48.757Z,100710.13
2022-07-29T11:19:09.333Z,100700.63
2022-07-29T11:26:19.417Z,100697.80
2022-07-29T11:28:56.444Z,100697.13
2022-07-29T11:31:49.366Z,100694.92
2022-07-29T11:34:31.046Z,100701.77
2022-07-29T11:37:28.893Z,100700.52
2022-07-29T11:40:19.638Z,100700.41
2022-07-29T11:42:57.328Z,100699.91
2022-07-29T11:45:43.266Z,100695.38
2022-07-29T11:48:29.316Z,100696.34
2022-07-29T11:54:02.592Z,100695.09
2022-07-29T11:56:36.989Z,100690.31
2022-07-29T11:59:11.297Z,100689.81
2022-07-29T12:02:33.009Z,100687.28
2022-07-29T12:05:00.780Z,100690.29
2022-07-29T12:07:46.017Z,100687.58
2022-07-29T12:16:35.816Z,100680.20
2022-07-29T12:19:24.838Z,100683.98
2022-07-29T12:21:59.663Z,100677.91
2022-07-29T12:25:02.336Z,100685.54
2022-07-29T12:28:40.535Z,100684.92
2022-07-29T12:32:24.103Z,100683.30
2022-07-29T12:34:53.379Z,100680.16
2022-07-29T12:37:54.821Z,100682.22
2022-07-29T12:40:26.561Z,100684.52
2022-07-29T12:43:14.467Z,100685.71
2022-07-29T12:45:51.674Z,100678.92
2022-07-29T12:48:41.726Z,100679.38
2022-07-29T12:51:12.489Z,100679.99
2022-07-29T12:54:03.053Z,100680.27
2022-07-29T12:56:42.678Z,100671.64
2022-07-29T12:59:21.425Z,100668.64
2022-07-29T13:01:54.092Z,100660.50
2022-07-29T13:04:34.901Z,100661.36
2022-07-29T13:07:08.464Z,100658.70
2022-07-29T13:09:42.811Z,100659.73
2022-07-29T13:12:14.415Z,100664.38
2022-07-29T13:14:47.537Z,100662.61
2022-07-29T13:17:21.600Z,100659.77
2022-07-29T13:19:51.895Z,100660.48
2022-07-29T13:22:24.193Z,100660.56
2022-07-29T13:25:34.883Z,100657.58
2022-07-29T13:28:06.126Z,100648.25
2022-07-29T13:30:36.625Z,100647.86
2022-07-29T13:33:14.873Z,100645.59
2022-07-29T13:35:43.851Z,100642.98
2022-07-29T13:38:41.049Z,100634.84
2022-07-29T13:41:12.464Z,100638.05
2022-07-29T13:43:50.089Z,100633.61
2022-07-29T13:46:22.545Z,100632.57
2022-07-29T13:48:54.755Z,100626.49
2022-07-29T13:51:28.442Z,100626.22
2022-07-29T13:54:00.884Z,100628.80
2022-07-29T13:56:30.404Z,100624.18
2022-07-29T13:59:02.694Z,100611.80
2022-07-29T14:01:31.596Z,100619.63
2022-07-29T14:03:59.798Z,100618.83
2022-07-29T14:06:30.924Z,100615.36
2022-07-29T14:09:03.517Z,100617.85
2022-07-29T14:11:34.083Z,100613.56
2022-07-29T14:14:02.041Z,100613.77
2022-07-29T14:16:36.237Z,100611.05
2022-07-29T14:19:08.559Z,100609.56
2022-07-29T14:21:37.669Z,100608.77
2022-07-29T14:24:14.160Z,100609.23
2022-07-29T14:26:47.122Z,100604.42
2022-07-29T14:29:15.325Z,100602.48
2022-07-29T14:31:44.550Z,100605.13
2022-07-29T14:34:14.105Z,100604.38
2022-07-29T14:36:42.271Z,100604.61
2022-07-29T14:39:16.376Z,100603.29
2022-07-29T14:41:45.599Z,100595.88
2022-07-29T14:44:13.209Z,100597.05
2022-07-29T14:46:41.913Z,100593.20
2022-07-29T14:49:16.968Z,100598.95
2022-07-29T14:51:44.818Z,100594.73
2022-07-29T14:54:13.606Z,100587.45
2022-07-29T14:56:46.512Z,100591.09
2022-07-29T14:59:19.429Z,100585.42
2022-07-29T15:01:48.948Z,100586.06
2022-07-29T15:04:17.579Z,100586.52
2022-07-29T15:06:46.685Z,100586.34
2022-07-29T15:09:16.832Z,100581.46
2022-07-29T15:11:48.126Z,100578.24
2022-07-29T15:14:17.684Z,100583.13
2022-07-29T15:16:48.298Z,100578.27
2022-07-29T15:19:16.948Z,100569.67
2022-07-29T15:21:48.470Z,100573.39
2022-07-29T15:24:20.749Z,100572.13
2022-07-29T15:26:49.775Z,100572.66
2022-07-29T15:29:18.125Z,100562.52
2022-07-29T15:31:47.739Z,100562.71
2022-07-29T15:34:19.077Z,100562.28
2022-07-29T15:36:52.566Z,100557.91
2022-07-29T15:39:25.404Z,100556.16
2022-07-29T15:41:57.778Z,100556.45
2022-07-29T15:44:27.209Z,100555.46
2022-07-29T15:47:10.097Z,100553.80
2022-07-29T15:49:48.027Z,100550.33
2022-07-29T15:52:25.517Z,100548.36
2022-07-29T15:54:57.029Z,100547.96
2022-07-29T15:57:28.965Z,100536.88
2022-07-29T15:59:57.111Z,100532.35
2022-07-29T16:02:25.139Z,100529.66
2022-07-29T16:04:53.859Z,100530.19
2022-07-29T16:07:21.891Z,100523.96
2022-07-29T16:09:53.408Z,100526.80
2022-07-29T16:12:22.693Z,100524.25
2022-07-29T16:14:52.600Z,100523.36
2022-07-29T16:17:21.570Z,100523.58
2022-07-29T16:19:50.083Z,100522.61
2022-07-29T16:22:21.587Z,100522.49
2022-07-29T16:24:51.885Z,100519.09
2022-07-29T16:27:25.168Z,100517.75
2022-07-29T16:29:55.800Z,100520.98
2022-07-29T16:32:25.564Z,100515.21
2022-07-29T16:34:54.090Z,100513.91
2022-07-29T16:37:22.126Z,100509.31
2022-07-29T16:39:51.322Z,100511.63
2022-07-29T16:42:36.974Z,100512.73
2022-07-29T16:45:07.708Z,100517.25
2022-07-29T16:47:36.336Z,100511.71
2022-07-29T16:50:35.306Z,100517.89
2022-07-29T16:53:06.637Z,100523.29
2022-07-29T16:55:34.739Z,100524.23
2022-07-29T16:58:06.294Z,100523.59
2022-07-29T17:00:34.632Z,100522.05
2022-07-29T17:03:06.995Z,100526.48
2022-07-29T17:05:53.728Z,100522.84
2022-07-29T17:08:23.193Z,100528.41
2022-07-29T17:10:51.983Z,100525.39
2022-07-29T17:13:21.505Z,100529.40
2022-07-29T17:15:58.778Z,100526.74
2022-07-29T17:18:32.923Z,100532.81
2022-07-29T17:21:03.071Z,100528.67
2022-07-29T17:23:31.965Z,100528.85
2022-07-29T17:26:03.188Z,100536.73
2022-07-29T17:28:35.673Z,100533.37
2022-07-29T17:31:07.834Z,100536.80
2022-07-29T17:33:37.398Z,100537.65
2022-07-29T17:36:26.582Z,100535.70
2022-07-29T17:38:57.502Z,100536.06
2022-07-29T17:41:26.332Z,100540.28
2022-07-29T17:44:03.847Z,100542.41
2022-07-29T17:46:57.726Z,100546.02
2022-07-29T17:49:27.889Z,100546.31
2022-07-29T17:52:00.444Z,100549.30
2022-07-29T17:54:29.360Z,100549.09
2022-07-29T17:56:58.070Z,100546.71
2022-07-29T17:59:26.098Z,100547.41
2022-07-29T18:01:57.337Z,100547.05
2022-07-29T18:04:28.408Z,100546.59
2022-07-29T18:06:59.444Z,100549.89
2022-07-29T18:09:29.701Z,100551.96
2022-07-29T18:12:00.404Z,100554.06
2022-07-29T18:14:31.033Z,100554.39
2022-07-29T18:17:00.343Z,100549.92
2022-07-29T18:19:30.349Z,100550.55
2022-07-29T18:22:05.273Z,100557.79
2022-07-29T18:24:35.471Z,100555.25
2022-07-29T18:27:05.302Z,100561.52
2022-07-29T18:29:34.445Z,100559.67
2022-07-29T18:32:05.556Z,100557.48
2022-07-29T18:34:33.606Z,100557.76
2022-07-29T18:37:02.109Z,100552.52
2022-07-29T18:40:46.116Z,100548.48
2022-07-29T18:43:15.914Z,100550.84
2022-07-29T18:45:45.562Z,100542.61
2022-07-29T18:48:14.327Z,100548.93
2022-07-29T18:50:43.108Z,100549.13
2022-07-29T18:53:12.424Z,100550.38
2022-07-29T18:55:43.068Z,100552.84
2022-07-29T18:58:17.188Z,100557.29
2022-07-29T19:00:44.769Z,100557.91
2022-07-29T19:03:25.468Z,100562.20
2022-07-29T19:05:54.540Z,100565.30
2022-07-29T19:08:29.188Z,100568.42
2022-07-29T19:11:05.049Z,100565.52
2022-07-29T19:13:34.222Z,100565.47
2022-07-29T19:16:27.515Z,100570.55
2022-07-29T19:18:56.478Z,100570.87
2022-07-29T19:21:25.823Z,100571.73
2022-07-29T19:24:02.105Z,100570.59
2022-07-29T19:26:43.729Z,100568.29
2022-07-29T19:29:21.601Z,100574.39
2022-07-29T19:32:05.129Z,100574.29
2022-07-29T19:34:32.982Z,100576.45
2022-07-29T19:37:01.977Z,100581.65
2022-07-29T19:43:50.562Z,100580.36
2022-07-29T19:46:23.122Z,100582.66
2022-07-29T19:48:52.658Z,100580.68
2022-07-29T19:51:24.698Z,100578.38
2022-07-29T19:53:54.578Z,100586.95
2022-07-29T19:56:26.658Z,100589.22
2022-07-29T19:58:55.288Z,100594.63
2022-07-29T20:01:24.644Z,100592.21
2022-07-29T20:03:54.278Z,100592.31
2022-07-29T20:06:22.930Z,100590.19
2022-07-29T20:09:05.239Z,100584.27
2022-07-29T20:11:56.311Z,100584.77
2022-07-29T20:15:37.462Z,100584.70
2022-07-29T20:18:18.129Z,100587.12
2022-07-29T20:21:17.460Z,100588.02
2022-07-29T20:23:45.830Z,100590.73
2022-07-29T20:28:01.869Z,100594.02
2022-07-29T20:31:35.461Z,100595.30
2022-07-29T20:34:42.438Z,100587.95
2022-07-29T20:38:23.730Z,100592.45
2022-07-29T20:45:28.820Z,100596.42
2022-07-29T20:48:50.930Z,100595.70
2022-07-29T20:51:31.154Z,100604.81
2022-07-29T20:54:32.576Z,100603.30
2022-07-29T20:57:49.731Z,100602.97
2022-07-29T21:17:01.482Z,100601.67
2022-07-29T21:20:48.508Z,100600.52
2022-07-29T21:24:05.710Z,100594.88
2022-07-29T21:27:11.049Z,100587.42
2022-07-29T21:31:09.770Z,100584.79
2022-07-29T21:37:54.324Z,100583.15
2022-07-29T21:40:59.355Z,100585.19
2022-07-29T21:44:31.117Z,100585.08
2022-07-29T21:47:54.194Z,100584.27
2022-07-29T21:51:04.081Z,100582.29
2022-07-29T21:53:46.852Z,100585.60
2022-07-29T21:56:16.238Z,100586.23
2022-07-29T21:58:54.183Z,100583.31
2022-07-29T22:01:23.910Z,100580.28
2022-07-29T22:03:58.929Z,100582.96
2022-07-29T22:07:07.018Z,100581.27
2022-07-29T22:11:24.151Z,100577.27
2022-07-29T22:14:03.662Z,100578.52
2022-07-29T22:16:34.279Z,100573.84
2022-07-29T22:19:06.558Z,100577.86
2022-07-29T22:21:37.192Z,100581.34
2022-07-29T22:24:35.499Z,100581.45
2022-07-29T22:28:14.069Z,100582.11
2022-07-29T22:30:52.094Z,100582.12
2022-07-29T22:33:39.045Z,100578.40
2022-07-29T22:36:09.513Z,100574.04
2022-07-29T22:38:41.849Z,100572.06
2022-07-29T22:41:50.107Z,100572.55
2022-07-29T22:44:59.671Z,100575.25
2022-07-29T22:48:48.413Z,100565.63
2022-07-29T22:51:42.214Z,100567.67
2022-07-29T22:54:56.823Z,100562.96
2022-07-29T22:57:48.504Z,100557.70
2022-07-29T23:00:42.426Z,100560.33
2022-07-29T23:07:36.070Z,100556.16
2022-07-29T23:10:32.962Z,100550.84
2022-07-29T23:13:26.764Z,100550.91
2022-07-29T23:16:26.122Z,100555.36
2022-07-29T23:19:38.368Z,100552.71
2022-07-29T23:23:07.545Z,100552.77
2022-07-29T23:25:40.710Z,100555.80
2022-07-29T23:28:25.806Z,100556.91
2022-07-29T23:31:00.427Z,100557.91
2022-07-29T23:33:41.746Z,100557.33
2022-07-29T23:36:13.958Z,100557.33
2022-07-29T23:40:02.973Z,100561.14
2022-07-29T23:42:53.819Z,100563.22
2022-07-29T23:45:40.043Z,100554.48
2022-07-29T23:48:16.786Z,100557.52
2022-07-29T23:50:52.653Z,100560.08
2022-07-29T23:53:23.879Z,100562.77
2022-07-29T23:55:54.983Z,100563.89
2022-07-29T23:58:23.326Z,100560.12
